createdAt,value
2023-04-20T00:00:47.987Z,88.32
2023-04-20T00:03:49.816Z,88.82
2023-04-20T00:06:53.120Z,88.36
2023-04-20T00:09:55.032Z,88.05
2023-04-20T00:12:56.774Z,87.65
2023-04-20T00:15:58.426Z,88.00
2023-04-20T00:19:00.558Z,87.91
2023-04-20T00:22:03.627Z,87.92
2023-04-20T00:25:06.156Z,87.90
2023-04-20T00:28:08.077Z,87.22
2023-04-20T00:31:09.924Z,87.22
2023-04-20T00:34:11.761Z,87.23
2023-04-20T00:37:14.979Z,86.87
2023-04-20T00:40:16.622Z,86.93
2023-04-20T00:43:18.352Z,87.33
2023-04-20T00:46:20.781Z,87.55
2023-04-20T00:49:22.765Z,87.76
2023-04-20T00:52:25.891Z,87.63
2023-04-20T00:55:29.754Z,86.76
2023-04-20T00:58:31.325Z,87.13
2023-04-20T01:01:33.235Z,88.00
2023-04-20T01:04:35.251Z,87.50
2023-04-20T01:07:38.326Z,87.37
2023-04-20T01:10:39.991Z,87.33
2023-04-20T01:13:42.153Z,86.85
2023-04-20T01:16:43.850Z,87.54
2023-04-20T01:19:45.614Z,86.75
2023-04-20T01:22:50.076Z,87.47
2023-04-20T01:25:51.717Z,87.89
2023-04-20T01:28:53.460Z,88.04
2023-04-20T01:31:55.310Z,88.93
2023-04-20T01:34:57.037Z,88.17
2023-04-20T01:38:00.062Z,88.55
2023-04-20T01:41:02.712Z,88.53
2023-04-20T01:44:04.586Z,88.02
2023-04-20T01:47:06.554Z,88.26
2023-04-20T01:50:08.905Z,87.74
2023-04-20T01:53:11.874Z,87.44
2023-04-20T01:56:13.544Z,87.42
2023-04-20T01:59:15.323Z,86.56
2023-04-20T02:02:17.165Z,86.95
2023-04-20T02:05:19.199Z,87.38
2023-04-20T02:08:22.390Z,88.11
2023-04-20T02:11:24.012Z,87.80
2023-04-20T02:14:26.002Z,88.09
2023-04-20T02:17:28.017Z,87.14
2023-04-20T02:20:29.788Z,86.50
2023-04-20T02:23:32.771Z,86.45
2023-04-20T02:26:34.445Z,84.95
2023-04-20T02:29:36.116Z,84.52
2023-04-20T02:32:37.856Z,83.90
2023-04-20T02:35:39.512Z,82.60
2023-04-20T02:38:42.489Z,82.60
2023-04-20T02:41:44.346Z,82.62
2023-04-20T02:44:46.208Z,81.72
2023-04-20T02:47:47.868Z,82.82
2023-04-20T02:50:49.545Z,80.38
2023-04-20T02:53:52.598Z,82.28
2023-04-20T02:56:55.876Z,81.68
2023-04-20T02:59:58.909Z,80.67
2023-04-20T03:03:00.707Z,80.69
2023-04-20T03:06:02.649Z,81.54
2023-04-20T03:09:05.701Z,84.59
2023-04-20T03:12:07.596Z,83.19
2023-04-20T03:15:10.472Z,85.63
2023-04-20T03:18:12.145Z,85.14
2023-04-20T03:21:13.822Z,85.08
2023-04-20T03:24:17.636Z,85.46
2023-04-20T03:27:19.305Z,86.33
2023-04-20T03:30:20.952Z,86.55
2023-04-20T03:33:22.568Z,85.03
2023-04-20T03:36:24.452Z,85.16
2023-04-20T03:39:27.603Z,85.36
2023-04-20T03:42:29.305Z,86.44
2023-04-20T03:45:31.275Z,87.06
2023-04-20T03:48:33.413Z,86.29
2023-04-20T03:51:35.086Z,85.96
2023-04-20T03:54:38.106Z,85.20
2023-04-20T03:57:39.777Z,85.88
2023-04-20T04:00:41.521Z,86.02
2023-04-20T04:03:43.374Z,86.08
2023-04-20T04:06:45.175Z,87.25
2023-04-20T04:09:48.190Z,87.45
2023-04-20T04:12:49.913Z,86.52
2023-04-20T04:15:51.577Z,86.45
2023-04-20T04:18:53.176Z,86.05
2023-04-20T04:21:54.824Z,86.65
2023-04-20T04:24:58.132Z,86.31
2023-04-20T04:28:00.087Z,86.25
2023-04-20T04:31:01.844Z,86.18
2023-04-20T04:34:03.519Z,86.59
2023-04-20T04:37:05.200Z,85.57
2023-04-20T04:40:09.640Z,86.75
2023-04-20T04:43:11.531Z,86.06
2023-04-20T04:46:13.206Z,86.34
2023-04-20T04:49:14.990Z,85.85
2023-04-20T04:52:17.215Z,85.12
2023-04-20T04:55:20.301Z,84.49
2023-04-20T04:58:21.955Z,85.63
2023-04-20T05:01:23.588Z,84.26
2023-04-20T05:04:25.348Z,84.17
2023-04-20T05:07:27.380Z,83.30
2023-04-20T05:10:30.501Z,82.85
2023-04-20T05:13:32.128Z,82.00
2023-04-20T05:16:33.853Z,82.08
2023-04-20T05:19:35.531Z,80.85
2023-04-20T05:22:37.236Z,80.17
2023-04-20T05:25:40.588Z,79.48
2023-04-20T05:28:42.415Z,79.14
2023-04-20T05:31:44.245Z,77.94
2023-04-20T05:34:45.903Z,76.56
2023-04-20T05:37:48.001Z,76.47
2023-04-20T05:40:51.279Z,75.54
2023-04-20T05:43:52.946Z,77.81
2023-04-20T05:46:54.631Z,76.88
2023-04-20T05:49:56.340Z,76.10
2023-04-20T05:52:58.288Z,74.98
2023-04-20T05:56:01.321Z,75.18
2023-04-20T05:59:03.260Z,72.40
2023-04-20T06:02:04.938Z,72.61
2023-04-20T06:05:07.959Z,71.54
2023-04-20T06:08:09.984Z,71.26
2023-04-20T06:11:13.302Z,72.65
2023-04-20T06:14:15.238Z,68.37
2023-04-20T06:17:17.085Z,66.97
2023-04-20T06:20:19.027Z,65.00
2023-04-20T06:23:20.940Z,65.33
2023-04-20T06:26:24.228Z,65.40
2023-04-20T06:29:25.929Z,65.82
2023-04-20T06:32:27.950Z,64.70
2023-04-20T06:35:29.924Z,65.18
2023-04-20T06:38:31.884Z,63.92
2023-04-20T06:41:35.035Z,63.35
2023-04-20T06:44:36.693Z,62.27
2023-04-20T06:47:38.454Z,61.42
2023-04-20T06:50:40.147Z,61.49
2023-04-20T06:53:42.194Z,60.87
2023-04-20T06:56:45.139Z,59.81
2023-04-20T06:59:46.859Z,61.35
2023-04-20T07:02:50.080Z,59.18
2023-04-20T07:05:52.244Z,60.76
2023-04-20T07:08:54.294Z,60.38
2023-04-20T07:11:57.637Z,60.01
2023-04-20T07:14:59.419Z,57.62
2023-04-20T07:18:01.531Z,56.83
2023-04-20T07:21:03.879Z,57.00
2023-04-20T07:24:06.184Z,55.61
2023-04-20T07:27:09.236Z,56.83
2023-04-20T07:30:11.394Z,57.62
2023-04-20T07:33:13.145Z,54.53
2023-04-20T07:36:14.837Z,54.27
2023-04-20T07:39:16.558Z,54.27
2023-04-20T07:42:19.857Z,54.37
2023-04-20T07:45:21.615Z,53.07
2023-04-20T07:48:23.264Z,52.84
2023-04-20T07:51:24.951Z,54.17
2023-04-20T07:54:26.718Z,54.11
2023-04-20T07:57:29.945Z,53.32
2023-04-20T08:00:31.942Z,52.88
2023-04-20T08:03:33.883Z,53.36
2023-04-20T08:06:35.772Z,53.78
2023-04-20T08:09:37.747Z,54.31
2023-04-20T08:12:40.913Z,56.57
2023-04-20T08:15:42.639Z,53.17
2023-04-20T08:18:45.034Z,51.85
2023-04-20T08:21:46.704Z,53.28
2023-04-20T08:24:48.490Z,51.10
2023-04-20T08:27:51.536Z,53.01
2023-04-20T08:30:53.539Z,51.82
2023-04-20T08:33:55.705Z,52.45
2023-04-20T08:36:57.685Z,52.52
2023-04-20T08:39:59.421Z,51.99
2023-04-20T08:43:02.986Z,51.03
2023-04-20T08:46:04.613Z,50.91
2023-04-20T08:49:11.675Z,50.77
2023-04-20T08:52:13.498Z,49.43
2023-04-20T08:55:16.183Z,51.01
2023-04-20T08:58:19.399Z,48.94
2023-04-20T09:01:34.910Z,49.04
2023-04-20T09:04:38.935Z,50.15
2023-04-20T09:07:50.814Z,49.86
2023-04-20T09:10:52.562Z,47.04
2023-04-20T09:14:00.238Z,48.19
2023-04-20T09:17:02.020Z,46.94
2023-04-20T09:20:04.502Z,46.02
2023-04-20T09:23:12.930Z,47.97
2023-04-20T09:26:18.132Z,45.67
2023-04-20T09:29:22.613Z,45.62
2023-04-20T09:32:25.615Z,45.17
2023-04-20T09:35:27.374Z,46.11
2023-04-20T09:38:29.691Z,46.57
2023-04-20T09:41:32.263Z,46.01
2023-04-20T09:44:38.533Z,43.86
2023-04-20T09:47:41.344Z,41.70
2023-04-20T09:50:49.995Z,41.95
2023-04-20T09:53:53.022Z,42.55
2023-04-20T09:56:55.077Z,42.05
2023-04-20T09:59:58.377Z,42.38
2023-04-20T10:03:00.641Z,43.50
2023-04-20T10:06:02.549Z,45.25
2023-04-20T10:09:05.565Z,42.45
2023-04-20T10:12:09.063Z,42.07
2023-04-20T10:15:12.354Z,41.36
2023-04-20T10:18:19.071Z,40.76
2023-04-20T10:21:20.938Z,40.65
2023-04-20T10:24:29.084Z,40.80
2023-04-20T10:27:30.804Z,43.15
2023-04-20T10:30:34.819Z,41.63
2023-04-20T10:33:36.487Z,41.16
2023-04-20T10:36:38.504Z,41.42
2023-04-20T10:39:44.809Z,40.91
2023-04-20T10:42:46.911Z,40.90
2023-04-20T10:45:50.518Z,40.98
2023-04-20T10:48:53.760Z,40.69
2023-04-20T10:51:56.350Z,39.27
2023-04-20T10:54:58.376Z,40.28
2023-04-20T10:58:00.392Z,39.24
2023-04-20T11:01:04.948Z,38.83
2023-04-20T11:04:06.749Z,38.86
2023-04-20T11:07:14.790Z,39.37
2023-04-20T11:10:17.020Z,39.49
2023-04-20T11:13:22.654Z,39.96
2023-04-20T11:16:36.345Z,40.68
2023-04-20T11:19:47.253Z,41.53
2023-04-20T11:22:57.452Z,41.34
2023-04-20T11:25:59.630Z,40.76
2023-04-20T11:29:01.661Z,38.15
2023-04-20T11:32:06.785Z,38.03
2023-04-20T11:35:10.305Z,37.60
2023-04-20T11:38:12.886Z,36.67
2023-04-20T11:41:15.262Z,35.49
2023-04-20T11:44:17.521Z,35.52
2023-04-20T11:47:20.814Z,34.98
2023-04-20T11:50:22.906Z,36.15
2023-04-20T11:53:24.799Z,35.82
2023-04-20T11:56:27.173Z,36.16
2023-04-20T11:59:29.351Z,36.67
2023-04-20T12:02:32.885Z,36.91
2023-04-20T12:05:35.147Z,37.43
2023-04-20T12:08:37.478Z,36.42
2023-04-20T12:11:39.125Z,37.14
2023-04-20T12:14:41.090Z,36.16
2023-04-20T12:17:44.251Z,36.14
2023-04-20T12:20:46.649Z,36.51
2023-04-20T12:23:48.869Z,36.23
2023-04-20T12:26:50.991Z,35.90
2023-04-20T12:29:53.051Z,35.66
2023-04-20T12:32:56.471Z,35.61
2023-04-20T12:35:58.511Z,36.77
2023-04-20T12:39:00.898Z,36.37
2023-04-20T12:42:02.948Z,36.84
2023-04-20T12:45:07.756Z,36.37
2023-04-20T12:48:10.964Z,36.30
2023-04-20T12:51:13.289Z,36.07
2023-04-20T12:54:15.417Z,36.12
2023-04-20T12:57:17.346Z,34.81
2023-04-20T13:00:20.161Z,35.85
2023-04-20T13:03:23.897Z,35.34
2023-04-20T13:06:26.056Z,35.26
2023-04-20T13:09:28.037Z,33.95
2023-04-20T13:12:29.996Z,33.38
2023-04-20T13:15:39.070Z,34.29
2023-04-20T13:18:43.204Z,33.65
2023-04-20T13:21:45.230Z,33.94
2023-04-20T13:24:47.387Z,34.19
2023-04-20T13:27:49.521Z,34.94
2023-04-20T13:30:53.046Z,34.98
2023-04-20T13:33:56.364Z,36.46
2023-04-20T13:36:58.386Z,36.67
2023-04-20T13:40:00.334Z,35.79
2023-04-20T13:43:02.398Z,35.92
2023-04-20T13:46:04.832Z,35.63
2023-04-20T13:49:08.029Z,35.60
2023-04-20T13:52:10.061Z,37.38
2023-04-20T13:55:12.262Z,35.07
2023-04-20T13:58:14.212Z,34.49
2023-04-20T14:01:16.475Z,35.04
2023-04-20T14:04:20.694Z,34.76
2023-04-20T14:07:23.456Z,33.94
2023-04-20T14:13:41.352Z,33.72
2023-04-20T14:16:43.685Z,33.15
2023-04-20T14:19:46.983Z,32.90
2023-04-20T14:22:48.839Z,33.80
2023-04-20T14:29:07.486Z,34.71
2023-04-20T14:32:09.120Z,35.60
2023-04-20T14:35:15.189Z,35.68
2023-04-20T14:38:17.170Z,35.58
2023-04-20T14:41:19.157Z,35.07
2023-04-20T14:44:23.006Z,36.08
2023-04-20T14:47:25.330Z,35.58
2023-04-20T14:50:28.600Z,35.38
2023-04-20T14:53:31.431Z,34.49
2023-04-20T14:56:34.233Z,35.03
2023-04-20T14:59:36.260Z,34.64
2023-04-20T15:02:39.099Z,35.08
2023-04-20T15:05:42.729Z,35.12
2023-04-20T15:08:47.081Z,35.64
2023-04-20T15:11:49.086Z,36.75
2023-04-20T15:14:51.115Z,37.06
2023-04-20T15:17:53.654Z,37.72
2023-04-20T15:20:56.930Z,37.29
2023-04-20T15:23:58.862Z,40.90
2023-04-20T15:27:07.429Z,43.76
2023-04-20T15:30:10.151Z,45.29
2023-04-20T15:33:12.134Z,46.73
2023-04-20T15:36:18.418Z,48.47
2023-04-20T15:39:20.275Z,49.79
2023-04-20T15:42:22.360Z,51.99
2023-04-20T15:45:24.362Z,47.95
2023-04-20T15:48:27.115Z,48.27
2023-04-20T15:51:30.810Z,48.79
2023-04-20T15:54:32.509Z,45.47
2023-04-20T15:57:34.130Z,43.92
2023-04-20T16:00:35.940Z,46.35
2023-04-20T16:03:38.049Z,47.80
2023-04-20T16:06:42.121Z,48.84
2023-04-20T16:09:44.002Z,49.68
2023-04-20T16:12:45.684Z,50.16
2023-04-20T16:15:47.468Z,50.35
2023-04-20T16:18:49.248Z,50.46
2023-04-20T16:21:52.412Z,49.43
2023-04-20T16:24:54.521Z,50.43
2023-04-20T16:27:56.274Z,50.78
2023-04-20T16:30:58.572Z,51.36
2023-04-20T16:34:01.081Z,51.07
2023-04-20T16:37:04.185Z,51.45
2023-04-20T16:40:07.240Z,51.41
2023-04-20T16:43:08.885Z,50.43
2023-04-20T16:46:13.890Z,49.49
2023-04-20T16:49:15.635Z,48.59
2023-04-20T16:52:18.733Z,48.52
2023-04-20T16:55:20.500Z,48.60
2023-04-20T16:58:22.287Z,48.96
2023-04-20T17:01:24.066Z,48.69
2023-04-20T17:04:25.832Z,49.36
2023-04-20T17:07:28.908Z,49.39
2023-04-20T17:10:30.605Z,50.15
2023-04-20T17:13:33.873Z,51.32
2023-04-20T17:16:35.625Z,51.79
2023-04-20T17:19:37.634Z,52.70
2023-04-20T17:22:40.901Z,52.79
2023-04-20T17:25:42.646Z,54.11
2023-04-20T17:28:44.267Z,54.93
2023-04-20T17:31:46.293Z,55.87
2023-04-20T17:34:50.772Z,56.11
2023-04-20T17:37:54.115Z,56.77
2023-04-20T17:40:56.114Z,58.49
2023-04-20T17:43:58.214Z,57.95
2023-04-20T17:47:00.431Z,58.71
2023-04-20T17:50:02.350Z,59.31
2023-04-20T17:53:05.753Z,58.85
2023-04-20T17:56:07.438Z,58.40
2023-04-20T17:59:09.184Z,58.23
2023-04-20T18:02:11.241Z,57.92
2023-04-20T18:05:13.211Z,57.74
2023-04-20T18:08:17.686Z,58.25
2023-04-20T18:11:19.848Z,58.40
2023-04-20T18:14:22.088Z,58.42
2023-04-20T18:17:24.012Z,58.20
2023-04-20T18:20:26.163Z,57.90
2023-04-20T18:23:30.880Z,57.94
2023-04-20T18:26:33.583Z,58.59
2023-04-20T18:29:36.027Z,58.14
2023-04-20T18:32:38.528Z,58.65
2023-04-20T18:35:41.200Z,59.07
2023-04-20T18:38:44.901Z,59.46
2023-04-20T18:41:47.401Z,59.28
2023-04-20T18:44:49.848Z,60.02
2023-04-20T18:47:52.703Z,60.02
2023-04-20T18:50:58.169Z,60.07
2023-04-20T18:54:02.615Z,60.32
2023-04-20T18:57:04.398Z,60.38
2023-04-20T19:00:08.470Z,60.93
2023-04-20T19:03:11.601Z,61.35
2023-04-20T19:06:14.215Z,60.93
2023-04-20T19:09:17.429Z,61.10
2023-04-20T19:12:21.057Z,61.61
2023-04-20T19:15:23.531Z,62.00
2023-04-20T19:18:26.332Z,61.67
2023-04-20T19:21:32.222Z,62.75
2023-04-20T19:24:37.007Z,63.15
2023-04-20T19:27:39.953Z,64.29
2023-04-20T19:30:42.611Z,63.77
2023-04-20T19:33:45.277Z,64.71
2023-04-20T19:36:47.535Z,64.01
2023-04-20T19:39:54.741Z,63.09
2023-04-20T19:42:58.418Z,62.77
2023-04-20T19:46:00.354Z,62.15
2023-04-20T19:49:02.408Z,62.33
2023-04-20T19:52:04.689Z,62.00
2023-04-20T19:55:10.894Z,61.60
2023-04-20T19:58:13.257Z,62.14
2023-04-20T20:01:16.077Z,62.44
2023-04-20T20:04:18.637Z,62.28
2023-04-20T20:07:20.749Z,62.10
2023-04-20T20:10:23.820Z,62.32
2023-04-20T20:13:26.700Z,62.09
2023-04-20T20:16:31.441Z,62.48
2023-04-20T20:19:33.491Z,62.32
2023-04-20T20:22:35.783Z,62.56
2023-04-20T20:25:39.351Z,62.33
2023-04-20T20:28:41.008Z,62.65
2023-04-20T20:31:42.871Z,62.79
2023-04-20T20:34:44.643Z,62.90
2023-04-20T20:37:46.634Z,63.08
2023-04-20T20:40:49.958Z,63.03
2023-04-20T20:43:51.657Z,63.68
2023-04-20T20:46:53.628Z,62.96
2023-04-20T20:49:55.297Z,63.34
2023-04-20T20:52:57.182Z,62.27
2023-04-20T20:56:00.398Z,62.60
2023-04-20T20:59:02.034Z,61.76
2023-04-20T21:02:03.924Z,61.64
2023-04-20T21:05:06.171Z,60.65
2023-04-20T21:08:07.872Z,60.31
2023-04-20T21:11:10.911Z,59.52
2023-04-20T21:14:12.869Z,59.16
2023-04-20T21:17:14.540Z,59.22
2023-04-20T21:20:16.380Z,59.48
2023-04-20T21:23:18.009Z,59.54
2023-04-20T21:26:21.257Z,58.92
2023-04-20T21:29:23.000Z,58.30
2023-04-20T21:32:24.724Z,58.61
2023-04-20T21:35:26.763Z,57.91
2023-04-20T21:38:28.608Z,57.96
2023-04-20T21:41:31.612Z,57.57
2023-04-20T21:44:33.329Z,57.01
2023-04-20T21:47:34.982Z,57.26
2023-04-20T21:50:36.869Z,56.93
2023-04-20T21:53:38.534Z,57.33
2023-04-20T21:56:41.846Z,57.25
2023-04-20T21:59:43.725Z,57.50
2023-04-20T22:02:45.584Z,57.66
2023-04-20T22:05:47.660Z,57.38
2023-04-20T22:08:49.286Z,57.25
2023-04-20T22:11:52.277Z,57.68
2023-04-20T22:14:53.959Z,57.92
2023-04-20T22:17:55.646Z,57.95
2023-04-20T22:20:57.456Z,58.41
2023-04-20T22:23:59.625Z,58.57
2023-04-20T22:27:02.874Z,58.90
2023-04-20T22:30:05.915Z,59.08
2023-04-20T22:33:07.622Z,59.02
2023-04-20T22:36:09.729Z,59.22
2023-04-20T22:39:11.343Z,59.58
2023-04-20T22:42:14.409Z,59.56
2023-04-20T22:45:16.205Z,59.13
2023-04-20T22:48:17.831Z,59.35
2023-04-20T22:51:19.741Z,59.87
2023-04-20T22:54:21.376Z,59.44
2023-04-20T22:57:24.663Z,58.84
2023-04-20T23:00:26.568Z,58.56
2023-04-20T23:03:28.483Z,58.40
2023-04-20T23:06:30.594Z,58.33
2023-04-20T23:09:32.361Z,57.78
2023-04-20T23:12:35.608Z,57.63
2023-04-20T23:15:37.596Z,57.47
2023-04-20T23:18:39.548Z,57.22
2023-04-20T23:21:41.393Z,57.28
2023-04-20T23:24:43.273Z,56.88
2023-04-20T23:27:46.534Z,56.86
2023-04-20T23:30:48.232Z,56.38
2023-04-20T23:33:49.903Z,56.60
2023-04-20T23:36:51.720Z,56.38
2023-04-20T23:39:53.401Z,56.58
2023-04-20T23:42:56.819Z,56.26
2023-04-20T23:45:58.768Z,56.42
2023-04-20T23:49:00.747Z,56.07
2023-04-20T23:52:02.650Z,56.08
2023-04-20T23:55:05.240Z,55.73
2023-04-20T23:58:08.243Z,55.93
